sensor_id;sensor_type;location;lat;lon;timestamp;temperature;humidity
27114;DHT22;14648;49.730;8.614;2023-11-18T00:01:05;8.80;72.20
27114;DHT22;14648;49.730;8.614;2023-11-18T00:03:31;8.80;72.20
27114;DHT22;14648;49.730;8.614;2023-11-18T00:05:57;8.80;72.00
27114;DHT22;14648;49.730;8.614;2023-11-18T00:08:23;8.80;72.00
27114;DHT22;14648;49.730;8.614;2023-11-18T00:10:50;8.80;72.20
27114;DHT22;14648;49.730;8.614;2023-11-18T00:13:16;8.80;72.30
27114;DHT22;14648;49.730;8.614;2023-11-18T00:15:42;8.80;72.30
27114;DHT22;14648;49.730;8.614;2023-11-18T00:18:11;8.70;72.20
27114;DHT22;14648;49.730;8.614;2023-11-18T00:20:37;8.80;73.10
27114;DHT22;14648;49.730;8.614;2023-11-18T00:23:03;8.80;72.20
27114;DHT22;14648;49.730;8.614;2023-11-18T00:25:30;8.80;72.20
27114;DHT22;14648;49.730;8.614;2023-11-18T00:27:56;8.80;72.20
27114;DHT22;14648;49.730;8.614;2023-11-18T00:30:22;8.70;73.00
27114;DHT22;14648;49.730;8.614;2023-11-18T00:32:47;8.70;72.20
27114;DHT22;14648;49.730;8.614;2023-11-18T00:35:13;8.80;72.20
27114;DHT22;14648;49.730;8.614;2023-11-18T00:37:40;8.70;72.20
27114;DHT22;14648;49.730;8.614;2023-11-18T00:40:07;8.70;72.20
27114;DHT22;14648;49.730;8.614;2023-11-18T00:42:34;8.70;72.20
27114;DHT22;14648;49.730;8.614;2023-11-18T00:45:00;8.70;72.30
27114;DHT22;14648;49.730;8.614;2023-11-18T00:47:26;8.60;72.20
27114;DHT22;14648;49.730;8.614;2023-11-18T00:49:51;8.70;72.30
27114;DHT22;14648;49.730;8.614;2023-11-18T00:52:18;8.60;72.10
27114;DHT22;14648;49.730;8.614;2023-11-18T00:54:44;8.60;72.20
27114;DHT22;14648;49.730;8.614;2023-11-18T00:57:10;8.60;72.20
27114;DHT22;14648;49.730;8.614;2023-11-18T00:59:36;8.60;72.10
27114;DHT22;14648;49.730;8.614;2023-11-18T01:02:02;8.60;72.10
27114;DHT22;14648;49.730;8.614;2023-11-18T01:04:29;8.60;72.10
27114;DHT22;14648;49.730;8.614;2023-11-18T01:06:54;8.60;72.20
27114;DHT22;14648;49.730;8.614;2023-11-18T01:09:20;8.60;72.20
27114;DHT22;14648;49.730;8.614;2023-11-18T01:11:46;8.50;72.10
27114;DHT22;14648;49.730;8.614;2023-11-18T01:14:12;8.50;72.00
27114;DHT22;14648;49.730;8.614;2023-11-18T01:16:38;8.50;72.10
27114;DHT22;14648;49.730;8.614;2023-11-18T01:19:04;8.50;72.10
27114;DHT22;14648;49.730;8.614;2023-11-18T01:21:29;8.60;71.90
27114;DHT22;14648;49.730;8.614;2023-11-18T01:23:55;8.50;72.00
27114;DHT22;14648;49.730;8.614;2023-11-18T01:26:20;8.50;72.00
27114;DHT22;14648;49.730;8.614;2023-11-18T01:28:48;8.50;72.00
27114;DHT22;14648;49.730;8.614;2023-11-18T01:31:14;8.50;71.90
27114;DHT22;14648;49.730;8.614;2023-11-18T01:33:40;8.50;71.80
27114;DHT22;14648;49.730;8.614;2023-11-18T01:36:07;8.50;71.70
27114;DHT22;14648;49.730;8.614;2023-11-18T01:38:38;8.50;72.00
27114;DHT22;14648;49.730;8.614;2023-11-18T01:41:07;8.40;72.00
27114;DHT22;14648;49.730;8.614;2023-11-18T01:43:33;8.40;72.00
27114;DHT22;14648;49.730;8.614;2023-11-18T01:46:05;8.40;72.00
27114;DHT22;14648;49.730;8.614;2023-11-18T01:48:32;8.40;71.80
27114;DHT22;14648;49.730;8.614;2023-11-18T01:51:01;8.40;71.80
27114;DHT22;14648;49.730;8.614;2023-11-18T01:53:31;8.40;71.80
27114;DHT22;14648;49.730;8.614;2023-11-18T01:55:56;8.40;71.70
27114;DHT22;14648;49.730;8.614;2023-11-18T01:58:24;8.40;71.70
27114;DHT22;14648;49.730;8.614;2023-11-18T02:00:51;8.40;71.70
27114;DHT22;14648;49.730;8.614;2023-11-18T02:03:17;8.40;71.60
27114;DHT22;14648;49.730;8.614;2023-11-18T02:05:43;8.30;71.60
27114;DHT22;14648;49.730;8.614;2023-11-18T02:08:09;8.40;71.60
27114;DHT22;14648;49.730;8.614;2023-11-18T02:13:26;8.30;71.60
27114;DHT22;14648;49.730;8.614;2023-11-18T02:15:56;8.20;71.60
27114;DHT22;14648;49.730;8.614;2023-11-18T02:18:27;8.20;71.50
27114;DHT22;14648;49.730;8.614;2023-11-18T02:20:55;8.20;71.40
27114;DHT22;14648;49.730;8.614;2023-11-18T02:23:25;8.10;71.40
27114;DHT22;14648;49.730;8.614;2023-11-18T02:25:52;8.00;71.60
27114;DHT22;14648;49.730;8.614;2023-11-18T02:28:18;7.90;71.80
27114;DHT22;14648;49.730;8.614;2023-11-18T02:30:50;7.90;71.80
27114;DHT22;14648;49.730;8.614;2023-11-18T02:33:22;7.90;71.80
27114;DHT22;14648;49.730;8.614;2023-11-18T02:36:04;7.90;71.70
27114;DHT22;14648;49.730;8.614;2023-11-18T02:38:43;7.80;71.60
27114;DHT22;14648;49.730;8.614;2023-11-18T02:41:12;7.70;71.50
27114;DHT22;14648;49.730;8.614;2023-11-18T02:43:40;7.70;71.50
27114;DHT22;14648;49.730;8.614;2023-11-18T02:46:07;7.70;71.40
27114;DHT22;14648;49.730;8.614;2023-11-18T02:48:34;7.70;71.40
27114;DHT22;14648;49.730;8.614;2023-11-18T02:51:01;7.60;71.20
27114;DHT22;14648;49.730;8.614;2023-11-18T02:53:27;7.60;71.20
27114;DHT22;14648;49.730;8.614;2023-11-18T02:55:53;7.60;71.20
27114;DHT22;14648;49.730;8.614;2023-11-18T02:58:19;7.60;71.20
27114;DHT22;14648;49.730;8.614;2023-11-18T03:00:45;7.50;71.10
27114;DHT22;14648;49.730;8.614;2023-11-18T03:03:11;7.50;71.00
27114;DHT22;14648;49.730;8.614;2023-11-18T03:05:37;7.50;71.00
27114;DHT22;14648;49.730;8.614;2023-11-18T03:08:04;7.40;70.90
27114;DHT22;14648;49.730;8.614;2023-11-18T03:10:34;7.40;71.00
27114;DHT22;14648;49.730;8.614;2023-11-18T03:13:01;7.40;71.00
27114;DHT22;14648;49.730;8.614;2023-11-18T03:15:27;7.40;71.00
27114;DHT22;14648;49.730;8.614;2023-11-18T03:17:54;7.30;70.90
27114;DHT22;14648;49.730;8.614;2023-11-18T03:20:22;7.30;71.00
27114;DHT22;14648;49.730;8.614;2023-11-18T03:22:49;7.20;71.00
27114;DHT22;14648;49.730;8.614;2023-11-18T03:25:18;7.30;71.20
27114;DHT22;14648;49.730;8.614;2023-11-18T03:27:45;7.20;71.00
27114;DHT22;14648;49.730;8.614;2023-11-18T03:30:11;7.30;71.00
27114;DHT22;14648;49.730;8.614;2023-11-18T03:32:37;7.20;70.90
27114;DHT22;14648;49.730;8.614;2023-11-18T03:35:05;7.30;71.00
27114;DHT22;14648;49.730;8.614;2023-11-18T03:37:38;7.20;70.70
27114;DHT22;14648;49.730;8.614;2023-11-18T03:40:14;7.20;70.80
27114;DHT22;14648;49.730;8.614;2023-11-18T03:42:43;7.20;70.80
27114;DHT22;14648;49.730;8.614;2023-11-18T03:45:11;7.10;70.80
27114;DHT22;14648;49.730;8.614;2023-11-18T03:47:40;7.20;70.80
27114;DHT22;14648;49.730;8.614;2023-11-18T03:50:06;7.20;70.60
27114;DHT22;14648;49.730;8.614;2023-11-18T03:52:35;7.10;70.70
27114;DHT22;14648;49.730;8.614;2023-11-18T03:55:03;7.10;70.70
27114;DHT22;14648;49.730;8.614;2023-11-18T03:57:30;7.20;70.70
27114;DHT22;14648;49.730;8.614;2023-11-18T03:59:55;7.10;70.70
27114;DHT22;14648;49.730;8.614;2023-11-18T04:02:21;7.10;70.70
27114;DHT22;14648;49.730;8.614;2023-11-18T04:04:47;7.10;71.50
27114;DHT22;14648;49.730;8.614;2023-11-18T04:07:13;7.20;70.60
27114;DHT22;14648;49.730;8.614;2023-11-18T04:09:39;7.20;70.50
27114;DHT22;14648;49.730;8.614;2023-11-18T04:12:15;7.20;70.40
27114;DHT22;14648;49.730;8.614;2023-11-18T04:14:41;7.10;70.50
27114;DHT22;14648;49.730;8.614;2023-11-18T04:17:07;7.10;70.30
27114;DHT22;14648;49.730;8.614;2023-11-18T04:19:34;7.10;70.60
27114;DHT22;14648;49.730;8.614;2023-11-18T04:22:00;7.00;70.40
27114;DHT22;14648;49.730;8.614;2023-11-18T04:24:26;7.00;70.40
27114;DHT22;14648;49.730;8.614;2023-11-18T04:26:51;7.00;70.40
27114;DHT22;14648;49.730;8.614;2023-11-18T04:29:17;7.00;70.40
27114;DHT22;14648;49.730;8.614;2023-11-18T04:31:43;7.00;70.40
27114;DHT22;14648;49.730;8.614;2023-11-18T04:34:09;7.00;70.50
27114;DHT22;14648;49.730;8.614;2023-11-18T04:36:35;7.00;70.50
27114;DHT22;14648;49.730;8.614;2023-11-18T04:39:00;7.00;70.40
27114;DHT22;14648;49.730;8.614;2023-11-18T04:41:28;7.10;70.60
27114;DHT22;14648;49.730;8.614;2023-11-18T04:43:54;7.10;70.60
27114;DHT22;14648;49.730;8.614;2023-11-18T04:46:20;7.10;70.60
27114;DHT22;14648;49.730;8.614;2023-11-18T04:48:47;7.10;70.60
27114;DHT22;14648;49.730;8.614;2023-11-18T04:51:13;7.10;70.60
27114;DHT22;14648;49.730;8.614;2023-11-18T04:53:39;7.10;70.60
27114;DHT22;14648;49.730;8.614;2023-11-18T04:56:05;7.20;70.60
27114;DHT22;14648;49.730;8.614;2023-11-18T04:58:35;7.20;70.60
27114;DHT22;14648;49.730;8.614;2023-11-18T05:01:03;7.10;70.60
27114;DHT22;14648;49.730;8.614;2023-11-18T05:03:30;7.20;70.60
27114;DHT22;14648;49.730;8.614;2023-11-18T05:05:56;7.20;70.60
27114;DHT22;14648;49.730;8.614;2023-11-18T05:08:22;7.30;70.80
27114;DHT22;14648;49.730;8.614;2023-11-18T05:10:48;7.30;70.80
27114;DHT22;14648;49.730;8.614;2023-11-18T05:13:15;7.30;70.80
27114;DHT22;14648;49.730;8.614;2023-11-18T05:15:45;7.20;70.70
27114;DHT22;14648;49.730;8.614;2023-11-18T05:18:12;7.30;70.80
27114;DHT22;14648;49.730;8.614;2023-11-18T05:20:43;7.30;70.80
27114;DHT22;14648;49.730;8.614;2023-11-18T05:23:09;7.30;70.80
27114;DHT22;14648;49.730;8.614;2023-11-18T05:25:37;7.30;70.80
27114;DHT22;14648;49.730;8.614;2023-11-18T05:28:04;7.30;70.80
27114;DHT22;14648;49.730;8.614;2023-11-18T05:30:37;7.30;70.80
27114;DHT22;14648;49.730;8.614;2023-11-18T05:33:04;7.30;70.90
27114;DHT22;14648;49.730;8.614;2023-11-18T05:35:33;7.30;70.90
27114;DHT22;14648;49.730;8.614;2023-11-18T05:38:00;7.30;70.90
27114;DHT22;14648;49.730;8.614;2023-11-18T05:40:28;7.30;71.00
27114;DHT22;14648;49.730;8.614;2023-11-18T05:42:55;7.30;71.00
27114;DHT22;14648;49.730;8.614;2023-11-18T05:45:22;7.30;71.00
27114;DHT22;14648;49.730;8.614;2023-11-18T05:47:57;7.30;71.10
27114;DHT22;14648;49.730;8.614;2023-11-18T05:50:23;7.30;71.10
27114;DHT22;14648;49.730;8.614;2023-11-18T05:52:53;7.30;71.10
27114;DHT22;14648;49.730;8.614;2023-11-18T05:55:20;7.40;71.10
27114;DHT22;14648;49.730;8.614;2023-11-18T05:57:46;7.40;71.10
27114;DHT22;14648;49.730;8.614;2023-11-18T06:00:13;7.40;71.10
27114;DHT22;14648;49.730;8.614;2023-11-18T06:02:41;7.50;71.10
27114;DHT22;14648;49.730;8.614;2023-11-18T06:05:10;7.50;71.10
27114;DHT22;14648;49.730;8.614;2023-11-18T06:07:38;7.50;71.10
27114;DHT22;14648;49.730;8.614;2023-11-18T06:10:08;7.60;71.10
27114;DHT22;14648;49.730;8.614;2023-11-18T06:12:34;7.60;71.00
27114;DHT22;14648;49.730;8.614;2023-11-18T06:15:02;7.60;71.00
27114;DHT22;14648;49.730;8.614;2023-11-18T06:17:28;7.60;71.00
27114;DHT22;14648;49.730;8.614;2023-11-18T06:19:54;7.60;71.00
27114;DHT22;14648;49.730;8.614;2023-11-18T06:22:19;7.60;71.00
27114;DHT22;14648;49.730;8.614;2023-11-18T06:24:45;7.60;71.10
27114;DHT22;14648;49.730;8.614;2023-11-18T06:27:11;7.60;71.10
27114;DHT22;14648;49.730;8.614;2023-11-18T06:29:37;7.60;71.10
27114;DHT22;14648;49.730;8.614;2023-11-18T06:32:03;7.60;71.20
27114;DHT22;14648;49.730;8.614;2023-11-18T06:34:31;7.60;71.40
27114;DHT22;14648;49.730;8.614;2023-11-18T06:36:58;7.60;71.30
27114;DHT22;14648;49.730;8.614;2023-11-18T06:39:23;7.60;71.20
27114;DHT22;14648;49.730;8.614;2023-11-18T06:41:56;7.60;71.40
27114;DHT22;14648;49.730;8.614;2023-11-18T06:44:23;7.60;71.40
27114;DHT22;14648;49.730;8.614;2023-11-18T06:46:49;7.60;71.50
27114;DHT22;14648;49.730;8.614;2023-11-18T06:49:16;7.60;71.40
27114;DHT22;14648;49.730;8.614;2023-11-18T06:51:43;7.50;72.10
27114;DHT22;14648;49.730;8.614;2023-11-18T06:54:09;7.60;71.40
27114;DHT22;14648;49.730;8.614;2023-11-18T06:56:42;7.60;71.40
27114;DHT22;14648;49.730;8.614;2023-11-18T06:59:12;7.60;71.40
27114;DHT22;14648;49.730;8.614;2023-11-18T07:01:39;7.60;71.40
27114;DHT22;14648;49.730;8.614;2023-11-18T07:04:09;7.60;71.30
27114;DHT22;14648;49.730;8.614;2023-11-18T07:06:35;7.70;71.40
27114;DHT22;14648;49.730;8.614;2023-11-18T07:09:05;7.60;71.30
27114;DHT22;14648;49.730;8.614;2023-11-18T07:11:41;7.60;71.30
27114;DHT22;14648;49.730;8.614;2023-11-18T07:14:07;7.60;71.30
27114;DHT22;14648;49.730;8.614;2023-11-18T07:16:34;7.60;71.40
27114;DHT22;14648;49.730;8.614;2023-11-18T07:19:00;7.70;71.50
27114;DHT22;14648;49.730;8.614;2023-11-18T07:21:29;7.70;71.60
27114;DHT22;14648;49.730;8.614;2023-11-18T07:23:54;7.70;71.60
27114;DHT22;14648;49.730;8.614;2023-11-18T07:26:20;7.70;71.60
27114;DHT22;14648;49.730;8.614;2023-11-18T07:28:46;7.70;71.60
27114;DHT22;14648;49.730;8.614;2023-11-18T07:31:12;7.70;71.60
27114;DHT22;14648;49.730;8.614;2023-11-18T07:33:38;7.80;71.60
27114;DHT22;14648;49.730;8.614;2023-11-18T07:36:04;7.70;71.60
27114;DHT22;14648;49.730;8.614;2023-11-18T07:38:31;7.80;71.60
27114;DHT22;14648;49.730;8.614;2023-11-18T07:40:59;7.80;71.50
27114;DHT22;14648;49.730;8.614;2023-11-18T07:43:25;7.80;71.60
27114;DHT22;14648;49.730;8.614;2023-11-18T07:45:54;7.70;71.60
27114;DHT22;14648;49.730;8.614;2023-11-18T07:48:19;7.80;71.60
27114;DHT22;14648;49.730;8.614;2023-11-18T07:50:46;7.70;71.60
27114;DHT22;14648;49.730;8.614;2023-11-18T07:53:15;7.70;71.70
27114;DHT22;14648;49.730;8.614;2023-11-18T07:55:41;7.70;71.90
27114;DHT22;14648;49.730;8.614;2023-11-18T07:58:08;7.70;71.80
27114;DHT22;14648;49.730;8.614;2023-11-18T08:00:38;7.70;71.70
27114;DHT22;14648;49.730;8.614;2023-11-18T08:03:05;7.70;71.80
27114;DHT22;14648;49.730;8.614;2023-11-18T08:05:36;7.60;71.80
27114;DHT22;14648;49.730;8.614;2023-11-18T08:08:10;7.70;71.90
27114;DHT22;14648;49.730;8.614;2023-11-18T08:10:40;7.70;71.90
27114;DHT22;14648;49.730;8.614;2023-11-18T08:13:08;7.70;71.90
27114;DHT22;14648;49.730;8.614;2023-11-18T08:15:44;7.80;72.00
27114;DHT22;14648;49.730;8.614;2023-11-18T08:18:10;7.80;72.00
27114;DHT22;14648;49.730;8.614;2023-11-18T08:20:37;7.80;72.00
27114;DHT22;14648;49.730;8.614;2023-11-18T08:23:03;7.80;71.90
27114;DHT22;14648;49.730;8.614;2023-11-18T08:25:33;7.80;71.80
27114;DHT22;14648;49.730;8.614;2023-11-18T08:28:00;7.90;72.10
27114;DHT22;14648;49.730;8.614;2023-11-18T08:30:33;7.80;72.00
27114;DHT22;14648;49.730;8.614;2023-11-18T08:32:59;7.90;72.10
27114;DHT22;14648;49.730;8.614;2023-11-18T08:35:25;7.90;72.00
27114;DHT22;14648;49.730;8.614;2023-11-18T08:37:51;7.90;72.00
27114;DHT22;14648;49.730;8.614;2023-11-18T08:40:17;7.90;72.00
27114;DHT22;14648;49.730;8.614;2023-11-18T08:42:51;7.90;72.20
27114;DHT22;14648;49.730;8.614;2023-11-18T08:45:19;7.90;72.20
27114;DHT22;14648;49.730;8.614;2023-11-18T08:47:53;7.90;72.20
27114;DHT22;14648;49.730;8.614;2023-11-18T08:50:21;7.90;72.10
27114;DHT22;14648;49.730;8.614;2023-11-18T08:52:50;7.90;72.10
27114;DHT22;14648;49.730;8.614;2023-11-18T08:55:29;7.90;72.10
27114;DHT22;14648;49.730;8.614;2023-11-18T08:57:59;7.90;72.20
27114;DHT22;14648;49.730;8.614;2023-11-18T09:00:29;7.90;72.10
27114;DHT22;14648;49.730;8.614;2023-11-18T09:03:08;7.90;72.10
27114;DHT22;14648;49.730;8.614;2023-11-18T09:05:33;7.90;72.20
27114;DHT22;14648;49.730;8.614;2023-11-18T09:08:02;7.90;72.20
27114;DHT22;14648;49.730;8.614;2023-11-18T09:10:31;7.90;72.30
27114;DHT22;14648;49.730;8.614;2023-11-18T09:12:58;7.90;73.20
27114;DHT22;14648;49.730;8.614;2023-11-18T09:15:23;8.00;72.20
27114;DHT22;14648;49.730;8.614;2023-11-18T09:17:49;8.00;72.10
27114;DHT22;14648;49.730;8.614;2023-11-18T09:20:15;8.00;72.20
27114;DHT22;14648;49.730;8.614;2023-11-18T09:22:50;8.00;72.20
27114;DHT22;14648;49.730;8.614;2023-11-18T09:25:21;8.00;72.30
27114;DHT22;14648;49.730;8.614;2023-11-18T09:27:47;8.10;73.20
27114;DHT22;14648;49.730;8.614;2023-11-18T09:30:13;8.10;72.40
27114;DHT22;14648;49.730;8.614;2023-11-18T09:32:42;8.20;72.50
27114;DHT22;14648;49.730;8.614;2023-11-18T09:35:11;8.20;72.40
27114;DHT22;14648;49.730;8.614;2023-11-18T09:37:39;8.20;72.30
27114;DHT22;14648;49.730;8.614;2023-11-18T09:40:13;8.30;72.40
27114;DHT22;14648;49.730;8.614;2023-11-18T09:42:40;8.30;72.40
27114;DHT22;14648;49.730;8.614;2023-11-18T09:45:08;8.30;72.40
27114;DHT22;14648;49.730;8.614;2023-11-18T09:47:42;8.40;72.40
27114;DHT22;14648;49.730;8.614;2023-11-18T09:50:14;8.40;72.40
27114;DHT22;14648;49.730;8.614;2023-11-18T09:52:48;8.40;72.50
27114;DHT22;14648;49.730;8.614;2023-11-18T09:55:38;8.40;72.30
27114;DHT22;14648;49.730;8.614;2023-11-18T09:58:15;8.50;72.50
27114;DHT22;14648;49.730;8.614;2023-11-18T10:00:41;8.40;72.40
27114;DHT22;14648;49.730;8.614;2023-11-18T10:03:08;8.50;72.40
27114;DHT22;14648;49.730;8.614;2023-11-18T10:05:36;8.50;72.50
27114;DHT22;14648;49.730;8.614;2023-11-18T10:08:05;8.50;72.50
27114;DHT22;14648;49.730;8.614;2023-11-18T10:10:34;8.60;72.50
27114;DHT22;14648;49.730;8.614;2023-11-18T10:13:04;8.60;72.50
27114;DHT22;14648;49.730;8.614;2023-11-18T10:15:47;8.60;72.50
27114;DHT22;14648;49.730;8.614;2023-11-18T10:18:18;8.60;72.50
27114;DHT22;14648;49.730;8.614;2023-11-18T10:20:50;8.70;72.60
27114;DHT22;14648;49.730;8.614;2023-11-18T10:23:18;8.70;72.50
27114;DHT22;14648;49.730;8.614;2023-11-18T10:25:55;8.70;72.50
27114;DHT22;14648;49.730;8.614;2023-11-18T10:28:28;8.70;72.50
27114;DHT22;14648;49.730;8.614;2023-11-18T10:30:58;8.70;72.60
27114;DHT22;14648;49.730;8.614;2023-11-18T10:33:31;8.70;72.40
27114;DHT22;14648;49.730;8.614;2023-11-18T10:36:01;8.70;72.50
27114;DHT22;14648;49.730;8.614;2023-11-18T10:38:31;8.70;72.50
27114;DHT22;14648;49.730;8.614;2023-11-18T10:41:02;8.80;72.50
27114;DHT22;14648;49.730;8.614;2023-11-18T10:43:28;8.80;72.50
27114;DHT22;14648;49.730;8.614;2023-11-18T10:46:04;8.70;72.50
27114;DHT22;14648;49.730;8.614;2023-11-18T10:48:39;8.70;72.40
27114;DHT22;14648;49.730;8.614;2023-11-18T10:51:07;8.80;72.30
27114;DHT22;14648;49.730;8.614;2023-11-18T10:53:34;8.80;72.30
27114;DHT22;14648;49.730;8.614;2023-11-18T10:56:04;8.80;72.30
27114;DHT22;14648;49.730;8.614;2023-11-18T10:58:37;8.80;72.30
27114;DHT22;14648;49.730;8.614;2023-11-18T11:01:07;8.90;72.50
27114;DHT22;14648;49.730;8.614;2023-11-18T11:03:57;8.90;72.40
27114;DHT22;14648;49.730;8.614;2023-11-18T11:06:27;8.90;72.40
27114;DHT22;14648;49.730;8.614;2023-11-18T11:08:59;8.90;72.50
27114;DHT22;14648;49.730;8.614;2023-11-18T11:11:32;8.90;72.30
27114;DHT22;14648;49.730;8.614;2023-11-18T11:14:03;9.00;72.40
27114;DHT22;14648;49.730;8.614;2023-11-18T11:16:40;9.00;72.30
27114;DHT22;14648;49.730;8.614;2023-11-18T11:22:17;9.00;72.30
27114;DHT22;14648;49.730;8.614;2023-11-18T11:25:04;9.00;72.20
27114;DHT22;14648;49.730;8.614;2023-11-18T11:28:03;9.00;72.30
27114;DHT22;14648;49.730;8.614;2023-11-18T11:33:53;9.10;72.40
27114;DHT22;14648;49.730;8.614;2023-11-18T11:36:21;9.00;72.20
27114;DHT22;14648;49.730;8.614;2023-11-18T11:38:57;9.10;72.30
27114;DHT22;14648;49.730;8.614;2023-11-18T11:41:25;9.10;72.30
27114;DHT22;14648;49.730;8.614;2023-11-18T11:43:55;9.00;72.10
27114;DHT22;14648;49.730;8.614;2023-11-18T11:46:24;9.10;72.20
27114;DHT22;14648;49.730;8.614;2023-11-18T11:48:54;9.00;72.20
27114;DHT22;14648;49.730;8.614;2023-11-18T11:54:26;9.10;72.30
27114;DHT22;14648;49.730;8.614;2023-11-18T11:56:57;9.10;72.20
27114;DHT22;14648;49.730;8.614;2023-11-18T12:02:32;9.00;72.20
27114;DHT22;14648;49.730;8.614;2023-11-18T12:05:01;9.00;72.00
27114;DHT22;14648;49.730;8.614;2023-11-18T12:07:32;9.00;72.10
27114;DHT22;14648;49.730;8.614;2023-11-18T12:10:08;9.00;72.00
27114;DHT22;14648;49.730;8.614;2023-11-18T12:12:39;9.00;72.10
27114;DHT22;14648;49.730;8.614;2023-11-18T12:15:06;9.00;72.10
27114;DHT22;14648;49.730;8.614;2023-11-18T12:20:54;9.00;72.10
27114;DHT22;14648;49.730;8.614;2023-11-18T12:23:21;9.00;72.00
27114;DHT22;14648;49.730;8.614;2023-11-18T12:25:51;9.00;72.00
27114;DHT22;14648;49.730;8.614;2023-11-18T12:28:24;9.00;71.80
27114;DHT22;14648;49.730;8.614;2023-11-18T12:30:56;9.00;71.80
27114;DHT22;14648;49.730;8.614;2023-11-18T12:39:26;9.10;71.80
27114;DHT22;14648;49.730;8.614;2023-11-18T12:42:07;9.10;71.70
27114;DHT22;14648;49.730;8.614;2023-11-18T12:45:20;9.10;71.70
27114;DHT22;14648;49.730;8.614;2023-11-18T12:48:14;9.10;71.70
27114;DHT22;14648;49.730;8.614;2023-11-18T12:50:41;9.10;71.60
27114;DHT22;14648;49.730;8.614;2023-11-18T12:53:10;9.10;71.60
27114;DHT22;14648;49.730;8.614;2023-11-18T12:55:43;9.10;71.60
27114;DHT22;14648;49.730;8.614;2023-11-18T12:58:17;9.10;71.60
27114;DHT22;14648;49.730;8.614;2023-11-18T13:00:43;9.10;71.60
27114;DHT22;14648;49.730;8.614;2023-11-18T13:03:13;9.10;71.60
27114;DHT22;14648;49.730;8.614;2023-11-18T13:05:41;9.10;71.60
27114;DHT22;14648;49.730;8.614;2023-11-18T13:08:08;9.10;71.50
27114;DHT22;14648;49.730;8.614;2023-11-18T13:10:35;9.10;71.50
27114;DHT22;14648;49.730;8.614;2023-11-18T13:13:02;9.10;71.60
27114;DHT22;14648;49.730;8.614;2023-11-18T13:15:30;9.20;71.50
27114;DHT22;14648;49.730;8.614;2023-11-18T13:18:04;9.20;71.50
27114;DHT22;14648;49.730;8.614;2023-11-18T13:20:32;9.20;71.60
27114;DHT22;14648;49.730;8.614;2023-11-18T13:23:02;9.20;71.60
27114;DHT22;14648;49.730;8.614;2023-11-18T13:25:35;9.20;71.50
27114;DHT22;14648;49.730;8.614;2023-11-18T13:28:04;9.20;71.50
27114;DHT22;14648;49.730;8.614;2023-11-18T13:30:31;9.20;71.60
27114;DHT22;14648;49.730;8.614;2023-11-18T13:32:57;9.20;71.60
27114;DHT22;14648;49.730;8.614;2023-11-18T13:35:23;9.20;71.60
27114;DHT22;14648;49.730;8.614;2023-11-18T13:37:49;9.20;71.50
27114;DHT22;14648;49.730;8.614;2023-11-18T13:40:15;9.20;71.60
27114;DHT22;14648;49.730;8.614;2023-11-18T13:42:44;9.30;71.90
27114;DHT22;14648;49.730;8.614;2023-11-18T13:45:14;9.30;71.60
27114;DHT22;14648;49.730;8.614;2023-11-18T13:47:50;9.30;71.70
27114;DHT22;14648;49.730;8.614;2023-11-18T13:50:22;9.30;71.60
27114;DHT22;14648;49.730;8.614;2023-11-18T13:52:47;9.30;71.60
27114;DHT22;14648;49.730;8.614;2023-11-18T13:55:15;9.30;71.60
27114;DHT22;14648;49.730;8.614;2023-11-18T13:58:01;9.30;71.60
27114;DHT22;14648;49.730;8.614;2023-11-18T14:00:31;9.30;71.50
27114;DHT22;14648;49.730;8.614;2023-11-18T14:02:58;9.30;71.40
27114;DHT22;14648;49.730;8.614;2023-11-18T14:05:35;9.30;71.40
27114;DHT22;14648;49.730;8.614;2023-11-18T14:08:03;9.30;71.30
27114;DHT22;14648;49.730;8.614;2023-11-18T14:10:35;9.30;71.30
27114;DHT22;14648;49.730;8.614;2023-11-18T14:13:07;9.30;71.30
27114;DHT22;14648;49.730;8.614;2023-11-18T14:15:37;9.30;71.20
27114;DHT22;14648;49.730;8.614;2023-11-18T14:18:06;9.30;71.10
27114;DHT22;14648;49.730;8.614;2023-11-18T14:20:35;9.30;71.20
27114;DHT22;14648;49.730;8.614;2023-11-18T14:23:01;9.30;71.10
27114;DHT22;14648;49.730;8.614;2023-11-18T14:25:30;9.30;71.00
27114;DHT22;14648;49.730;8.614;2023-11-18T14:27:56;9.30;71.00
27114;DHT22;14648;49.730;8.614;2023-11-18T14:30:22;9.30;71.00
27114;DHT22;14648;49.730;8.614;2023-11-18T14:32:50;9.30;70.90
27114;DHT22;14648;49.730;8.614;2023-11-18T14:35:17;9.30;71.00
27114;DHT22;14648;49.730;8.614;2023-11-18T14:37:43;9.40;70.90
27114;DHT22;14648;49.730;8.614;2023-11-18T14:40:13;9.30;70.90
27114;DHT22;14648;49.730;8.614;2023-11-18T14:42:43;9.30;70.90
27114;DHT22;14648;49.730;8.614;2023-11-18T14:45:12;9.30;70.80
27114;DHT22;14648;49.730;8.614;2023-11-18T14:47:39;9.30;70.80
27114;DHT22;14648;49.730;8.614;2023-11-18T14:50:06;9.40;70.90
27114;DHT22;14648;49.730;8.614;2023-11-18T14:52:41;9.30;70.90
27114;DHT22;14648;49.730;8.614;2023-11-18T14:55:08;9.30;70.90
27114;DHT22;14648;49.730;8.614;2023-11-18T14:57:41;9.40;70.90
27114;DHT22;14648;49.730;8.614;2023-11-18T15:00:10;9.40;70.90
27114;DHT22;14648;49.730;8.614;2023-11-18T15:02:46;9.40;70.90
27114;DHT22;14648;49.730;8.614;2023-11-18T15:05:13;9.40;70.80
27114;DHT22;14648;49.730;8.614;2023-11-18T15:07:41;9.30;70.80
27114;DHT22;14648;49.730;8.614;2023-11-18T15:10:08;9.30;70.80
27114;DHT22;14648;49.730;8.614;2023-11-18T15:12:34;9.40;70.80
27114;DHT22;14648;49.730;8.614;2023-11-18T15:14:59;9.40;70.80
27114;DHT22;14648;49.730;8.614;2023-11-18T15:17:25;9.30;70.90
27114;DHT22;14648;49.730;8.614;2023-11-18T15:19:51;9.30;70.80
27114;DHT22;14648;49.730;8.614;2023-11-18T15:22:19;9.30;70.80
27114;DHT22;14648;49.730;8.614;2023-11-18T15:24:44;9.30;70.80
27114;DHT22;14648;49.730;8.614;2023-11-18T15:27:10;9.30;70.80
27114;DHT22;14648;49.730;8.614;2023-11-18T15:29:36;9.30;70.80
27114;DHT22;14648;49.730;8.614;2023-11-18T15:32:10;9.30;70.90
27114;DHT22;14648;49.730;8.614;2023-11-18T15:34:36;9.20;71.60
27114;DHT22;14648;49.730;8.614;2023-11-18T15:37:02;9.20;70.80
27114;DHT22;14648;49.730;8.614;2023-11-18T15:39:28;9.20;71.00
27114;DHT22;14648;49.730;8.614;2023-11-18T15:41:54;9.10;71.00
27114;DHT22;14648;49.730;8.614;2023-11-18T15:44:19;9.10;71.00
27114;DHT22;14648;49.730;8.614;2023-11-18T15:46:49;9.10;71.00
27114;DHT22;14648;49.730;8.614;2023-11-18T15:49:15;9.00;71.00
27114;DHT22;14648;49.730;8.614;2023-11-18T15:51:40;9.00;70.90
27114;DHT22;14648;49.730;8.614;2023-11-18T15:54:06;9.00;70.90
27114;DHT22;14648;49.730;8.614;2023-11-18T15:56:32;8.90;71.00
27114;DHT22;14648;49.730;8.614;2023-11-18T15:58:59;8.90;71.00
27114;DHT22;14648;49.730;8.614;2023-11-18T16:01:25;8.90;70.90
27114;DHT22;14648;49.730;8.614;2023-11-18T16:03:51;8.90;71.00
27114;DHT22;14648;49.730;8.614;2023-11-18T16:06:16;8.90;70.80
27114;DHT22;14648;49.730;8.614;2023-11-18T16:08:42;8.90;70.80
27114;DHT22;14648;49.730;8.614;2023-11-18T16:11:11;8.80;70.60
27114;DHT22;14648;49.730;8.614;2023-11-18T16:13:36;8.90;70.60
27114;DHT22;14648;49.730;8.614;2023-11-18T16:16:02;8.80;70.50
27114;DHT22;14648;49.730;8.614;2023-11-18T16:18:28;8.80;70.60